Aurora, NY (13026)

7:56 AM EST on February 14, 2016 (GMT -0500)
Sunnyside Dairy | | Change Station
CLOSE
Current Station
Personal Weather Station
Location: Scipio Center, NY
Elevation: 1168 ft
Nearby Weather Stations
Active Advisory: Wind Chill Warning Active Notice: Local Storm Report

Elev 1168 ft 42.73 °N, 76.57 °W | Updated 13 seconds ago

Partly Cloudy
Partly Cloudy
-8.6 °F
Feels Like -19 °F
N
4.0
Wind Variable Wind from WNW
Gusts 4.0 mph

Today
High -- | Low -- °F
--% Chance of Precip.
Yesterday
High -- | Low -- °F
Precip. -- in
Pressure 30.45 in
Visibility 0.8 miles
Clouds Scattered Clouds 800 ft
Overcast 1300 ft
Windchill -19 °F
Dew Point -12 °F
Humidity 85%
Rainfall 0.00 in
Snow Depth Not available.
7:05 AM 5:36 PM
Waxing Crescent, 41% visible
SPECI KITH 141252Z 35005KT 3/4SM -SN SCT008 OVC013 M23/M26 A3045 RMK AO2 P0000
Pressure 30.45 in
Visibility 0.8 miles
Clouds Scattered Clouds 800 ft
Overcast 1300 ft
Windchill -19 °F
Dew Point -12 °F
Humidity 85%
Rainfall 0.00 in
Snow Depth Not available.
7:05 AM 5:36 PM
Waxing Crescent, 41% visible
SPECI KITH 141252Z 35005KT 3/4SM -SN SCT008 OVC013 M23/M26 A3045 RMK AO2 P0000

10-Day Weather Forecast

Almanac

Astronomy

Feb. 14, 2016 Rise Set
Actual Time
Civil Twilight
Nautical Twilight
Astronomical Twilight
Moon
Length of Visible Light
Length of Day
Tomorrow will be .
, % of the Moon is Illuminated

Today's Extremes

State Highs State Lows

Community

WunderPhotos

Upload Photos

1,892,775 photos uploaded!

WunderBlog® & News

Nearby

Air Quality

  Air Quality AQ Index Pollutant
Not available.

Snow Depth

Station Depth Elevation

Earthquake Activity

City Distance Mag. Time & Date
Minimum magnitude displayed is 2.5.

Coastal Water Temperatures

Place Temperature

Stations

Nearby Weather Stations

Station Location Temp. Windchill Dew Point Humidity Wind Precip. Elev Updated Type
                   

Watches & Warnings

Wind Chill Warning
Issued: 9:38 PM EST Feb. 13, 2016 – National Weather Service

... Wind chill warning remains in effect until 1 PM EST Sunday...

* locations... the southern tier... Syracuse area and The Finger
lakes regions of New York.

* Hazard types... dangerously low wind chills and extreme cold.

* Timing... through Sunday morning.

* Impacts... potential for frostbite and hypothermia. The extreme
cold may also lead to pipes freezing.

* Wind chill readings... as low as 29 below. Lowest wind chill
values will be over the higher terrain.

* Winds... northwest 10 to 20 mph with gusts up to 30
mph... gradually diminishing overnight through Sunday morning.

* Temperatures... near zero to 10 below zero overnight into Sunday
morning. Above zero by midday Sunday.

Precautionary/preparedness actions...

A wind chill warning means the combination of very cold air and
strong winds will create dangerously low wind chill values. This
will result in frost bite and lead to hypothermia or death if
precautions are not taken.